sensor_id;sensor_type;location;lat;lon;timestamp;temperature;humidity
75621;DHT22;64574;48.506;-2.750;2023-03-13T00:01:47;12.40;80.60
75621;DHT22;64574;48.506;-2.750;2023-03-13T00:04:12;12.50;80.50
75621;DHT22;64574;48.506;-2.750;2023-03-13T00:06:39;12.50;80.40
75621;DHT22;64574;48.506;-2.750;2023-03-13T00:09:07;12.50;80.40
75621;DHT22;64574;48.506;-2.750;2023-03-13T00:11:33;12.50;80.50
75621;DHT22;64574;48.506;-2.750;2023-03-13T00:14:01;12.50;80.40
75621;DHT22;64574;48.506;-2.750;2023-03-13T00:16:28;12.50;80.10
75621;DHT22;64574;48.506;-2.750;2023-03-13T00:18:56;12.50;80.00
75621;DHT22;64574;48.506;-2.750;2023-03-13T00:21:23;12.50;79.80
75621;DHT22;64574;48.506;-2.750;2023-03-13T00:23:49;12.50;79.50
75621;DHT22;64574;48.506;-2.750;2023-03-13T00:26:18;12.50;79.50
75621;DHT22;64574;48.506;-2.750;2023-03-13T00:28:45;12.50;79.80
75621;DHT22;64574;48.506;-2.750;2023-03-13T00:33:47;12.50;79.80
75621;DHT22;64574;48.506;-2.750;2023-03-13T00:36:24;12.50;80.00
75621;DHT22;64574;48.506;-2.750;2023-03-13T00:38:51;12.50;80.30
75621;DHT22;64574;48.506;-2.750;2023-03-13T00:41:20;12.50;80.40
75621;DHT22;64574;48.506;-2.750;2023-03-13T00:43:46;12.50;80.70
75621;DHT22;64574;48.506;-2.750;2023-03-13T00:46:14;12.50;80.60
75621;DHT22;64574;48.506;-2.750;2023-03-13T00:48:40;12.50;80.60
75621;DHT22;64574;48.506;-2.750;2023-03-13T00:51:06;12.50;80.70
75621;DHT22;64574;48.506;-2.750;2023-03-13T00:53:32;12.50;80.70
75621;DHT22;64574;48.506;-2.750;2023-03-13T00:55:58;12.60;80.60
75621;DHT22;64574;48.506;-2.750;2023-03-13T00:58:26;12.60;81.00
75621;DHT22;64574;48.506;-2.750;2023-03-13T01:00:53;12.50;81.00
75621;DHT22;64574;48.506;-2.750;2023-03-13T01:03:19;12.60;81.10
75621;DHT22;64574;48.506;-2.750;2023-03-13T01:05:54;12.50;81.30
75621;DHT22;64574;48.506;-2.750;2023-03-13T01:08:20;12.50;81.30
75621;DHT22;64574;48.506;-2.750;2023-03-13T01:10:45;12.50;81.20
75621;DHT22;64574;48.506;-2.750;2023-03-13T01:13:11;12.50;81.10
75621;DHT22;64574;48.506;-2.750;2023-03-13T01:15:37;12.60;81.20
75621;DHT22;64574;48.506;-2.750;2023-03-13T01:18:02;12.60;81.30
75621;DHT22;64574;48.506;-2.750;2023-03-13T01:20:29;12.50;81.90
75621;DHT22;64574;48.506;-2.750;2023-03-13T01:22:55;12.50;83.00
75621;DHT22;64574;48.506;-2.750;2023-03-13T01:25:20;12.50;84.20
75621;DHT22;64574;48.506;-2.750;2023-03-13T01:27:46;12.30;84.80
75621;DHT22;64574;48.506;-2.750;2023-03-13T01:30:12;12.30;84.80
75621;DHT22;64574;48.506;-2.750;2023-03-13T01:32:38;12.30;84.70
75621;DHT22;64574;48.506;-2.750;2023-03-13T01:35:04;12.30;84.80
75621;DHT22;64574;48.506;-2.750;2023-03-13T01:37:29;12.40;84.40
75621;DHT22;64574;48.506;-2.750;2023-03-13T01:39:55;12.40;84.50
75621;DHT22;64574;48.506;-2.750;2023-03-13T01:42:20;12.40;84.60
75621;DHT22;64574;48.506;-2.750;2023-03-13T01:47:14;12.40;84.60
75621;DHT22;64574;48.506;-2.750;2023-03-13T01:49:40;12.30;84.60
75621;DHT22;64574;48.506;-2.750;2023-03-13T01:52:18;12.30;84.40
75621;DHT22;64574;48.506;-2.750;2023-03-13T01:54:54;12.30;84.50
75621;DHT22;64574;48.506;-2.750;2023-03-13T01:57:26;12.30;84.70
75621;DHT22;64574;48.506;-2.750;2023-03-13T02:02:20;12.30;84.60
75621;DHT22;64574;48.506;-2.750;2023-03-13T02:04:49;12.30;84.50
75621;DHT22;64574;48.506;-2.750;2023-03-13T02:07:21;12.30;84.60
75621;DHT22;64574;48.506;-2.750;2023-03-13T02:09:50;12.20;84.60
75621;DHT22;64574;48.506;-2.750;2023-03-13T02:12:31;12.30;84.40
75621;DHT22;64574;48.506;-2.750;2023-03-13T02:14:59;12.20;84.60
75621;DHT22;64574;48.506;-2.750;2023-03-13T02:17:26;12.20;84.60
75621;DHT22;64574;48.506;-2.750;2023-03-13T02:19:52;12.30;84.40
75621;DHT22;64574;48.506;-2.750;2023-03-13T02:22:41;12.30;84.10
75621;DHT22;64574;48.506;-2.750;2023-03-13T02:28:04;12.30;84.20
75621;DHT22;64574;48.506;-2.750;2023-03-13T02:30:32;12.30;84.40
75621;DHT22;64574;48.506;-2.750;2023-03-13T02:32:59;12.30;84.60
75621;DHT22;64574;48.506;-2.750;2023-03-13T02:35:25;12.30;84.70
75621;DHT22;64574;48.506;-2.750;2023-03-13T02:37:54;12.30;84.80
75621;DHT22;64574;48.506;-2.750;2023-03-13T02:40:24;12.30;85.00
75621;DHT22;64574;48.506;-2.750;2023-03-13T02:42:52;12.20;85.00
75621;DHT22;64574;48.506;-2.750;2023-03-13T02:45:19;12.20;85.00
75621;DHT22;64574;48.506;-2.750;2023-03-13T02:47:44;12.30;84.60
75621;DHT22;64574;48.506;-2.750;2023-03-13T02:50:11;12.30;84.90
75621;DHT22;64574;48.506;-2.750;2023-03-13T02:52:41;12.20;85.20
75621;DHT22;64574;48.506;-2.750;2023-03-13T02:55:17;12.20;85.30
75621;DHT22;64574;48.506;-2.750;2023-03-13T02:57:47;12.20;85.10
75621;DHT22;64574;48.506;-2.750;2023-03-13T03:00:13;12.30;85.00
75621;DHT22;64574;48.506;-2.750;2023-03-13T03:02:41;12.20;85.00
75621;DHT22;64574;48.506;-2.750;2023-03-13T03:05:08;12.20;85.10
75621;DHT22;64574;48.506;-2.750;2023-03-13T03:07:33;12.20;84.90
75621;DHT22;64574;48.506;-2.750;2023-03-13T03:09:59;12.30;84.60
75621;DHT22;64574;48.506;-2.750;2023-03-13T03:12:25;12.30;84.40
75621;DHT22;64574;48.506;-2.750;2023-03-13T03:14:50;12.30;84.10
75621;DHT22;64574;48.506;-2.750;2023-03-13T03:17:16;12.30;84.00
75621;DHT22;64574;48.506;-2.750;2023-03-13T03:19:42;12.20;83.80
75621;DHT22;64574;48.506;-2.750;2023-03-13T03:22:07;12.20;83.30
75621;DHT22;64574;48.506;-2.750;2023-03-13T03:24:33;12.30;82.80
75621;DHT22;64574;48.506;-2.750;2023-03-13T03:26:58;12.30;82.40
75621;DHT22;64574;48.506;-2.750;2023-03-13T03:29:24;12.30;82.00
75621;DHT22;64574;48.506;-2.750;2023-03-13T03:31:49;12.40;81.90
75621;DHT22;64574;48.506;-2.750;2023-03-13T03:34:15;12.30;82.00
75621;DHT22;64574;48.506;-2.750;2023-03-13T03:36:41;12.30;81.90
75621;DHT22;64574;48.506;-2.750;2023-03-13T03:39:06;12.30;81.90
75621;DHT22;64574;48.506;-2.750;2023-03-13T03:41:32;12.30;82.20
75621;DHT22;64574;48.506;-2.750;2023-03-13T03:43:58;12.20;82.50
75621;DHT22;64574;48.506;-2.750;2023-03-13T03:46:23;12.20;82.50
75621;DHT22;64574;48.506;-2.750;2023-03-13T03:48:49;12.20;82.50
75621;DHT22;64574;48.506;-2.750;2023-03-13T03:51:15;12.20;82.40
75621;DHT22;64574;48.506;-2.750;2023-03-13T03:53:40;12.20;82.40
75621;DHT22;64574;48.506;-2.750;2023-03-13T03:56:07;12.20;82.40
75621;DHT22;64574;48.506;-2.750;2023-03-13T03:58:32;12.20;82.40
75621;DHT22;64574;48.506;-2.750;2023-03-13T04:00:58;12.20;82.40
75621;DHT22;64574;48.506;-2.750;2023-03-13T04:03:25;12.20;82.50
75621;DHT22;64574;48.506;-2.750;2023-03-13T04:05:51;12.20;82.70
75621;DHT22;64574;48.506;-2.750;2023-03-13T04:08:17;12.10;82.70
75621;DHT22;64574;48.506;-2.750;2023-03-13T04:10:43;12.20;82.90
75621;DHT22;64574;48.506;-2.750;2023-03-13T04:13:08;12.20;82.90
75621;DHT22;64574;48.506;-2.750;2023-03-13T04:15:34;12.20;82.80
75621;DHT22;64574;48.506;-2.750;2023-03-13T04:17:59;12.10;83.00
75621;DHT22;64574;48.506;-2.750;2023-03-13T04:20:25;12.10;83.10
75621;DHT22;64574;48.506;-2.750;2023-03-13T04:22:51;12.10;83.30
75621;DHT22;64574;48.506;-2.750;2023-03-13T04:25:17;12.00;83.30
75621;DHT22;64574;48.506;-2.750;2023-03-13T04:27:42;12.10;83.00
75621;DHT22;64574;48.506;-2.750;2023-03-13T04:30:08;12.10;83.10
75621;DHT22;64574;48.506;-2.750;2023-03-13T04:32:34;12.10;82.90
75621;DHT22;64574;48.506;-2.750;2023-03-13T04:35:00;12.10;83.00
75621;DHT22;64574;48.506;-2.750;2023-03-13T04:37:25;12.00;82.90
75621;DHT22;64574;48.506;-2.750;2023-03-13T04:39:51;12.10;82.50
75621;DHT22;64574;48.506;-2.750;2023-03-13T04:42:16;12.10;82.20
75621;DHT22;64574;48.506;-2.750;2023-03-13T04:44:42;12.10;81.60
75621;DHT22;64574;48.506;-2.750;2023-03-13T04:47:08;12.00;81.80
75621;DHT22;64574;48.506;-2.750;2023-03-13T04:49:33;12.00;82.00
75621;DHT22;64574;48.506;-2.750;2023-03-13T04:51:59;12.00;81.90
75621;DHT22;64574;48.506;-2.750;2023-03-13T04:54:25;12.00;81.70
75621;DHT22;64574;48.506;-2.750;2023-03-13T04:56:50;12.00;81.70
75621;DHT22;64574;48.506;-2.750;2023-03-13T04:59:16;12.00;81.80
75621;DHT22;64574;48.506;-2.750;2023-03-13T05:01:42;12.00;81.30
75621;DHT22;64574;48.506;-2.750;2023-03-13T05:04:08;12.00;81.10
75621;DHT22;64574;48.506;-2.750;2023-03-13T05:06:34;11.90;81.10
75621;DHT22;64574;48.506;-2.750;2023-03-13T05:09:00;11.90;80.70
75621;DHT22;64574;48.506;-2.750;2023-03-13T05:11:26;11.90;80.50
75621;DHT22;64574;48.506;-2.750;2023-03-13T05:13:52;11.90;80.30
75621;DHT22;64574;48.506;-2.750;2023-03-13T05:16:17;11.90;80.10
75621;DHT22;64574;48.506;-2.750;2023-03-13T05:18:43;11.90;79.90
75621;DHT22;64574;48.506;-2.750;2023-03-13T05:21:08;11.90;80.00
75621;DHT22;64574;48.506;-2.750;2023-03-13T05:23:34;11.90;79.80
75621;DHT22;64574;48.506;-2.750;2023-03-13T05:26:00;11.90;79.80
75621;DHT22;64574;48.506;-2.750;2023-03-13T05:28:26;11.80;80.10
75621;DHT22;64574;48.506;-2.750;2023-03-13T05:30:51;11.80;80.20
75621;DHT22;64574;48.506;-2.750;2023-03-13T05:33:17;11.80;80.10
75621;DHT22;64574;48.506;-2.750;2023-03-13T05:35:44;11.90;80.00
75621;DHT22;64574;48.506;-2.750;2023-03-13T05:38:10;11.90;80.00
75621;DHT22;64574;48.506;-2.750;2023-03-13T05:40:36;11.90;79.80
75621;DHT22;64574;48.506;-2.750;2023-03-13T05:43:01;11.80;79.60
75621;DHT22;64574;48.506;-2.750;2023-03-13T05:45:27;11.70;79.30
75621;DHT22;64574;48.506;-2.750;2023-03-13T05:47:52;11.70;79.20
75621;DHT22;64574;48.506;-2.750;2023-03-13T05:50:18;11.70;79.00
75621;DHT22;64574;48.506;-2.750;2023-03-13T05:52:44;11.70;78.90
75621;DHT22;64574;48.506;-2.750;2023-03-13T05:55:09;11.70;78.80
75621;DHT22;64574;48.506;-2.750;2023-03-13T05:57:35;11.70;78.10
75621;DHT22;64574;48.506;-2.750;2023-03-13T06:00:02;11.70;77.80
75621;DHT22;64574;48.506;-2.750;2023-03-13T06:02:28;11.70;77.10
75621;DHT22;64574;48.506;-2.750;2023-03-13T06:04:53;11.70;76.50
75621;DHT22;64574;48.506;-2.750;2023-03-13T06:07:19;11.70;76.40
75621;DHT22;64574;48.506;-2.750;2023-03-13T06:09:44;11.60;76.70
75621;DHT22;64574;48.506;-2.750;2023-03-13T06:12:10;11.50;77.00
75621;DHT22;64574;48.506;-2.750;2023-03-13T06:14:36;11.50;77.30
75621;DHT22;64574;48.506;-2.750;2023-03-13T06:17:03;11.50;77.40
75621;DHT22;64574;48.506;-2.750;2023-03-13T06:19:29;11.50;77.30
75621;DHT22;64574;48.506;-2.750;2023-03-13T06:21:54;11.50;77.50
75621;DHT22;64574;48.506;-2.750;2023-03-13T06:24:20;11.50;77.60
75621;DHT22;64574;48.506;-2.750;2023-03-13T06:26:47;11.40;77.60
75621;DHT22;64574;48.506;-2.750;2023-03-13T06:29:14;11.40;77.30
75621;DHT22;64574;48.506;-2.750;2023-03-13T06:31:39;11.40;77.10
75621;DHT22;64574;48.506;-2.750;2023-03-13T06:34:05;11.40;76.80
75621;DHT22;64574;48.506;-2.750;2023-03-13T06:36:30;11.40;76.50
75621;DHT22;64574;48.506;-2.750;2023-03-13T06:38:56;11.40;76.40
75621;DHT22;64574;48.506;-2.750;2023-03-13T06:41:22;11.40;76.40
75621;DHT22;64574;48.506;-2.750;2023-03-13T06:43:48;11.40;76.50
75621;DHT22;64574;48.506;-2.750;2023-03-13T06:46:19;11.40;76.40
75621;DHT22;64574;48.506;-2.750;2023-03-13T06:48:45;11.40;76.50
75621;DHT22;64574;48.506;-2.750;2023-03-13T06:51:13;11.40;76.70
75621;DHT22;64574;48.506;-2.750;2023-03-13T06:53:38;11.40;76.80
75621;DHT22;64574;48.506;-2.750;2023-03-13T06:56:04;11.40;76.20
75621;DHT22;64574;48.506;-2.750;2023-03-13T06:58:30;11.50;76.00
75621;DHT22;64574;48.506;-2.750;2023-03-13T07:00:56;11.50;75.60
75621;DHT22;64574;48.506;-2.750;2023-03-13T07:03:22;11.50;75.30
75621;DHT22;64574;48.506;-2.750;2023-03-13T07:05:57;11.50;75.30
75621;DHT22;64574;48.506;-2.750;2023-03-13T07:08:22;11.40;75.40
75621;DHT22;64574;48.506;-2.750;2023-03-13T07:10:50;11.40;75.60
75621;DHT22;64574;48.506;-2.750;2023-03-13T07:13:16;11.40;75.50
75621;DHT22;64574;48.506;-2.750;2023-03-13T07:15:44;11.40;75.50
75621;DHT22;64574;48.506;-2.750;2023-03-13T07:18:10;11.40;75.40
75621;DHT22;64574;48.506;-2.750;2023-03-13T07:20:35;11.40;75.10
75621;DHT22;64574;48.506;-2.750;2023-03-13T07:23:01;11.40;75.20
75621;DHT22;64574;48.506;-2.750;2023-03-13T07:25:26;11.40;75.20
75621;DHT22;64574;48.506;-2.750;2023-03-13T07:27:52;11.40;75.20
75621;DHT22;64574;48.506;-2.750;2023-03-13T07:30:19;11.50;75.10
75621;DHT22;64574;48.506;-2.750;2023-03-13T07:32:44;11.50;75.20
75621;DHT22;64574;48.506;-2.750;2023-03-13T07:35:10;11.50;75.00
75621;DHT22;64574;48.506;-2.750;2023-03-13T07:37:35;11.50;75.20
75621;DHT22;64574;48.506;-2.750;2023-03-13T07:40:01;11.50;75.10
75621;DHT22;64574;48.506;-2.750;2023-03-13T07:42:27;11.50;75.00
75621;DHT22;64574;48.506;-2.750;2023-03-13T07:44:52;11.50;75.00
75621;DHT22;64574;48.506;-2.750;2023-03-13T07:47:18;11.50;74.70
75621;DHT22;64574;48.506;-2.750;2023-03-13T07:49:43;11.50;74.70
75621;DHT22;64574;48.506;-2.750;2023-03-13T07:52:11;11.50;74.70
75621;DHT22;64574;48.506;-2.750;2023-03-13T07:54:36;11.50;74.80
75621;DHT22;64574;48.506;-2.750;2023-03-13T07:57:02;11.50;74.70
75621;DHT22;64574;48.506;-2.750;2023-03-13T07:59:28;11.50;74.70
75621;DHT22;64574;48.506;-2.750;2023-03-13T08:01:54;11.60;74.40
75621;DHT22;64574;48.506;-2.750;2023-03-13T08:04:20;11.70;74.00
75621;DHT22;64574;48.506;-2.750;2023-03-13T08:06:45;11.70;73.60
75621;DHT22;64574;48.506;-2.750;2023-03-13T08:09:11;11.70;73.80
75621;DHT22;64574;48.506;-2.750;2023-03-13T08:11:40;11.70;74.10
75621;DHT22;64574;48.506;-2.750;2023-03-13T08:14:05;11.70;73.90
75621;DHT22;64574;48.506;-2.750;2023-03-13T08:16:33;11.70;74.00
75621;DHT22;64574;48.506;-2.750;2023-03-13T08:18:59;11.70;73.70
75621;DHT22;64574;48.506;-2.750;2023-03-13T08:21:28;11.70;73.90
75621;DHT22;64574;48.506;-2.750;2023-03-13T08:23:55;11.70;73.20
75621;DHT22;64574;48.506;-2.750;2023-03-13T08:26:23;11.80;73.50
75621;DHT22;64574;48.506;-2.750;2023-03-13T08:28:54;11.80;73.70
75621;DHT22;64574;48.506;-2.750;2023-03-13T08:31:22;11.80;73.50
75621;DHT22;64574;48.506;-2.750;2023-03-13T08:33:49;11.90;73.50
75621;DHT22;64574;48.506;-2.750;2023-03-13T08:36:26;11.90;73.40
75621;DHT22;64574;48.506;-2.750;2023-03-13T08:38:53;11.90;73.40
75621;DHT22;64574;48.506;-2.750;2023-03-13T08:41:21;11.90;73.30
75621;DHT22;64574;48.506;-2.750;2023-03-13T08:43:48;11.90;72.70
75621;DHT22;64574;48.506;-2.750;2023-03-13T08:46:14;11.90;72.10
75621;DHT22;64574;48.506;-2.750;2023-03-13T08:48:40;11.90;72.40
75621;DHT22;64574;48.506;-2.750;2023-03-13T08:51:09;11.90;72.00
75621;DHT22;64574;48.506;-2.750;2023-03-13T08:53:36;11.90;71.70
75621;DHT22;64574;48.506;-2.750;2023-03-13T08:56:02;11.90;71.80
75621;DHT22;64574;48.506;-2.750;2023-03-13T08:58:31;11.90;72.00
75621;DHT22;64574;48.506;-2.750;2023-03-13T09:01:05;11.90;70.70
75621;DHT22;64574;48.506;-2.750;2023-03-13T09:03:31;12.00;71.20
75621;DHT22;64574;48.506;-2.750;2023-03-13T09:05:58;12.00;71.80
75621;DHT22;64574;48.506;-2.750;2023-03-13T09:08:24;12.00;71.70
75621;DHT22;64574;48.506;-2.750;2023-03-13T09:11:22;12.00;72.00
75621;DHT22;64574;48.506;-2.750;2023-03-13T09:13:49;12.00;71.60
75621;DHT22;64574;48.506;-2.750;2023-03-13T09:16:17;12.10;71.60
75621;DHT22;64574;48.506;-2.750;2023-03-13T09:18:43;12.00;71.90
75621;DHT22;64574;48.506;-2.750;2023-03-13T09:21:12;12.10;72.10
75621;DHT22;64574;48.506;-2.750;2023-03-13T09:23:38;12.10;71.20
75621;DHT22;64574;48.506;-2.750;2023-03-13T09:26:05;12.10;70.90
75621;DHT22;64574;48.506;-2.750;2023-03-13T09:28:33;12.10;71.10
75621;DHT22;64574;48.506;-2.750;2023-03-13T09:31:10;12.10;71.50
75621;DHT22;64574;48.506;-2.750;2023-03-13T09:33:36;12.20;71.40
75621;DHT22;64574;48.506;-2.750;2023-03-13T09:36:01;12.20;69.90
75621;DHT22;64574;48.506;-2.750;2023-03-13T09:38:27;12.20;69.90
75621;DHT22;64574;48.506;-2.750;2023-03-13T09:40:54;12.30;70.50
75621;DHT22;64574;48.506;-2.750;2023-03-13T09:45:53;12.30;69.70
75621;DHT22;64574;48.506;-2.750;2023-03-13T09:48:41;12.20;70.00
75621;DHT22;64574;48.506;-2.750;2023-03-13T09:51:23;12.20;69.90
75621;DHT22;64574;48.506;-2.750;2023-03-13T09:56:55;12.20;69.20
75621;DHT22;64574;48.506;-2.750;2023-03-13T09:59:46;12.30;68.40
75621;DHT22;64574;48.506;-2.750;2023-03-13T10:02:29;12.30;66.80
75621;DHT22;64574;48.506;-2.750;2023-03-13T10:07:32;12.50;67.00
75621;DHT22;64574;48.506;-2.750;2023-03-13T10:09:59;12.50;67.30
75621;DHT22;64574;48.506;-2.750;2023-03-13T10:12:34;12.50;67.30
75621;DHT22;64574;48.506;-2.750;2023-03-13T10:17:45;12.60;67.40
75621;DHT22;64574;48.506;-2.750;2023-03-13T10:22:45;12.50;66.40
75621;DHT22;64574;48.506;-2.750;2023-03-13T10:27:49;12.60;65.10
75621;DHT22;64574;48.506;-2.750;2023-03-13T10:30:24;12.60;64.50
75621;DHT22;64574;48.506;-2.750;2023-03-13T10:33:00;12.50;65.00
75621;DHT22;64574;48.506;-2.750;2023-03-13T10:35:37;12.50;65.10
75621;DHT22;64574;48.506;-2.750;2023-03-13T10:38:14;12.50;64.60
75621;DHT22;64574;48.506;-2.750;2023-03-13T10:40:42;12.50;63.60
75621;DHT22;64574;48.506;-2.750;2023-03-13T10:43:19;12.50;64.00
75621;DHT22;64574;48.506;-2.750;2023-03-13T10:45:46;12.50;64.50
75621;DHT22;64574;48.506;-2.750;2023-03-13T10:48:18;12.50;64.70
75621;DHT22;64574;48.506;-2.750;2023-03-13T10:50:49;12.50;64.90
75621;DHT22;64574;48.506;-2.750;2023-03-13T10:53:32;12.50;65.10
75621;DHT22;64574;48.506;-2.750;2023-03-13T10:56:12;12.60;64.40
75621;DHT22;64574;48.506;-2.750;2023-03-13T10:58:49;12.70;64.20
75621;DHT22;64574;48.506;-2.750;2023-03-13T11:03:50;12.90;65.00
75621;DHT22;64574;48.506;-2.750;2023-03-13T11:09:12;12.80;65.10
75621;DHT22;64574;48.506;-2.750;2023-03-13T11:14:14;12.90;65.50
75621;DHT22;64574;48.506;-2.750;2023-03-13T11:16:47;12.90;64.80
75621;DHT22;64574;48.506;-2.750;2023-03-13T11:24:17;13.10;64.70
75621;DHT22;64574;48.506;-2.750;2023-03-13T11:27:05;13.00;64.20
75621;DHT22;64574;48.506;-2.750;2023-03-13T11:32:55;12.90;64.00
75621;DHT22;64574;48.506;-2.750;2023-03-13T11:37:51;12.80;64.60
75621;DHT22;64574;48.506;-2.750;2023-03-13T11:40:28;12.90;65.20
75621;DHT22;64574;48.506;-2.750;2023-03-13T11:56:58;13.40;63.00
75621;DHT22;64574;48.506;-2.750;2023-03-13T11:59:58;13.30;63.00
75621;DHT22;64574;48.506;-2.750;2023-03-13T12:02:34;13.30;62.10
75621;DHT22;64574;48.506;-2.750;2023-03-13T12:05:07;13.30;62.40
75621;DHT22;64574;48.506;-2.750;2023-03-13T12:07:53;13.30;62.50
75621;DHT22;64574;48.506;-2.750;2023-03-13T12:10:26;13.30;62.90
75621;DHT22;64574;48.506;-2.750;2023-03-13T12:13:11;13.30;62.50
75621;DHT22;64574;48.506;-2.750;2023-03-13T12:15:45;13.30;62.20
75621;DHT22;64574;48.506;-2.750;2023-03-13T12:18:31;13.30;61.60
75621;DHT22;64574;48.506;-2.750;2023-03-13T12:21:29;13.30;61.90
75621;DHT22;64574;48.506;-2.750;2023-03-13T12:24:20;13.30;61.20
75621;DHT22;64574;48.506;-2.750;2023-03-13T12:26:59;13.30;61.40
75621;DHT22;64574;48.506;-2.750;2023-03-13T12:32:32;13.50;60.90
75621;DHT22;64574;48.506;-2.750;2023-03-13T12:35:23;13.50;61.50
75621;DHT22;64574;48.506;-2.750;2023-03-13T12:38:14;13.60;62.20
75621;DHT22;64574;48.506;-2.750;2023-03-13T12:40:47;13.60;61.80
75621;DHT22;64574;48.506;-2.750;2023-03-13T12:43:17;13.60;61.60
75621;DHT22;64574;48.506;-2.750;2023-03-13T12:56:58;13.70;63.10
75621;DHT22;64574;48.506;-2.750;2023-03-13T12:59:31;13.70;62.90
75621;DHT22;64574;48.506;-2.750;2023-03-13T13:01:59;13.70;63.10
75621;DHT22;64574;48.506;-2.750;2023-03-13T13:04:31;13.70;64.00
75621;DHT22;64574;48.506;-2.750;2023-03-13T13:12:44;13.60;63.90
75621;DHT22;64574;48.506;-2.750;2023-03-13T13:15:25;13.70;64.10
75621;DHT22;64574;48.506;-2.750;2023-03-13T13:18:15;13.60;64.20
75621;DHT22;64574;48.506;-2.750;2023-03-13T13:23:32;13.50;65.10
75621;DHT22;64574;48.506;-2.750;2023-03-13T13:28:59;13.70;64.70
75621;DHT22;64574;48.506;-2.750;2023-03-13T13:31:52;13.80;64.60
75621;DHT22;64574;48.506;-2.750;2023-03-13T13:37:00;13.70;64.70
75621;DHT22;64574;48.506;-2.750;2023-03-13T13:45:03;13.80;64.80
75621;DHT22;64574;48.506;-2.750;2023-03-13T13:47:30;13.90;64.40
75621;DHT22;64574;48.506;-2.750;2023-03-13T13:49:58;13.90;63.90
75621;DHT22;64574;48.506;-2.750;2023-03-13T13:52:44;13.90;63.30
75621;DHT22;64574;48.506;-2.750;2023-03-13T14:00:26;14.20;61.30
75621;DHT22;64574;48.506;-2.750;2023-03-13T14:02:54;14.10;61.20
75621;DHT22;64574;48.506;-2.750;2023-03-13T14:05:29;14.10;61.10
75621;DHT22;64574;48.506;-2.750;2023-03-13T14:08:19;14.10;61.40
75621;DHT22;64574;48.506;-2.750;2023-03-13T14:11:48;14.00;61.80
75621;DHT22;64574;48.506;-2.750;2023-03-13T14:14:14;14.00;62.20
75621;DHT22;64574;48.506;-2.750;2023-03-13T14:16:52;14.00;62.40
75621;DHT22;64574;48.506;-2.750;2023-03-13T14:19:39;14.00;62.70
75621;DHT22;64574;48.506;-2.750;2023-03-13T14:22:09;13.90;63.30
75621;DHT22;64574;48.506;-2.750;2023-03-13T14:24:36;13.90;63.90
75621;DHT22;64574;48.506;-2.750;2023-03-13T14:27:17;13.70;64.70
75621;DHT22;64574;48.506;-2.750;2023-03-13T14:30:03;13.60;66.90
75621;DHT22;64574;48.506;-2.750;2023-03-13T14:32:29;13.30;69.80
75621;DHT22;64574;48.506;-2.750;2023-03-13T14:34:55;13.10;72.40
75621;DHT22;64574;48.506;-2.750;2023-03-13T14:37:43;12.90;74.30
75621;DHT22;64574;48.506;-2.750;2023-03-13T14:40:19;12.50;75.70
75621;DHT22;64574;48.506;-2.750;2023-03-13T14:42:47;12.30;75.20
75621;DHT22;64574;48.506;-2.750;2023-03-13T14:45:15;12.30;75.70
75621;DHT22;64574;48.506;-2.750;2023-03-13T14:47:43;12.00;74.30
75621;DHT22;64574;48.506;-2.750;2023-03-13T14:50:11;11.90;73.70
75621;DHT22;64574;48.506;-2.750;2023-03-13T14:52:44;11.90;72.90
75621;DHT22;64574;48.506;-2.750;2023-03-13T14:58:19;11.90;71.60
75621;DHT22;64574;48.506;-2.750;2023-03-13T15:00:48;12.30;70.10
75621;DHT22;64574;48.506;-2.750;2023-03-13T15:08:26;12.80;70.10
75621;DHT22;64574;48.506;-2.750;2023-03-13T15:10:52;12.80;69.70
75621;DHT22;64574;48.506;-2.750;2023-03-13T15:15:53;12.90;69.30
75621;DHT22;64574;48.506;-2.750;2023-03-13T15:18:30;12.90;69.60
75621;DHT22;64574;48.506;-2.750;2023-03-13T15:21:19;12.90;70.70
75621;DHT22;64574;48.506;-2.750;2023-03-13T15:26:16;13.20;67.80
75621;DHT22;64574;48.506;-2.750;2023-03-13T15:28:41;13.10;67.80
75621;DHT22;64574;48.506;-2.750;2023-03-13T15:31:10;13.30;67.00
75621;DHT22;64574;48.506;-2.750;2023-03-13T15:33:36;13.20;66.70
75621;DHT22;64574;48.506;-2.750;2023-03-13T15:36:02;13.10;67.50
75621;DHT22;64574;48.506;-2.750;2023-03-13T15:38:27;13.10;67.90
75621;DHT22;64574;48.506;-2.750;2023-03-13T15:40:53;13.10;67.90
75621;DHT22;64574;48.506;-2.750;2023-03-13T15:43:20;13.20;67.90
75621;DHT22;64574;48.506;-2.750;2023-03-13T15:45:47;13.10;67.90
75621;DHT22;64574;48.506;-2.750;2023-03-13T15:50:45;13.10;68.80
75621;DHT22;64574;48.506;-2.750;2023-03-13T15:53:18;13.00;68.90
75621;DHT22;64574;48.506;-2.750;2023-03-13T15:55:45;12.90;69.20
75621;DHT22;64574;48.506;-2.750;2023-03-13T15:58:11;12.80;69.40
75621;DHT22;64574;48.506;-2.750;2023-03-13T16:00:37;12.70;70.20
75621;DHT22;64574;48.506;-2.750;2023-03-13T16:03:03;12.70;70.80
75621;DHT22;64574;48.506;-2.750;2023-03-13T16:05:29;12.60;72.20
75621;DHT22;64574;48.506;-2.750;2023-03-13T16:07:54;12.50;73.00
75621;DHT22;64574;48.506;-2.750;2023-03-13T16:10:23;12.60;73.80
75621;DHT22;64574;48.506;-2.750;2023-03-13T16:12:50;12.50;73.90
75621;DHT22;64574;48.506;-2.750;2023-03-13T16:15:15;12.50;74.00
75621;DHT22;64574;48.506;-2.750;2023-03-13T16:17:41;12.60;74.10
75621;DHT22;64574;48.506;-2.750;2023-03-13T16:20:20;12.50;73.00
75621;DHT22;64574;48.506;-2.750;2023-03-13T16:22:46;12.50;73.40
75621;DHT22;64574;48.506;-2.750;2023-03-13T16:25:13;12.70;72.10
75621;DHT22;64574;48.506;-2.750;2023-03-13T16:27:39;12.70;71.00
75621;DHT22;64574;48.506;-2.750;2023-03-13T16:30:16;12.50;71.20
75621;DHT22;64574;48.506;-2.750;2023-03-13T16:32:42;12.70;71.20
75621;DHT22;64574;48.506;-2.750;2023-03-13T16:35:08;12.50;70.70
75621;DHT22;64574;48.506;-2.750;2023-03-13T16:37:33;12.40;70.10
75621;DHT22;64574;48.506;-2.750;2023-03-13T16:40:00;12.30;70.30
75621;DHT22;64574;48.506;-2.750;2023-03-13T16:42:26;12.20;70.70
75621;DHT22;64574;48.506;-2.750;2023-03-13T16:44:52;12.20;70.60
75621;DHT22;64574;48.506;-2.750;2023-03-13T16:47:21;12.20;70.80
75621;DHT22;64574;48.506;-2.750;2023-03-13T16:49:47;12.10;70.00
75621;DHT22;64574;48.506;-2.750;2023-03-13T16:52:15;12.20;70.40
75621;DHT22;64574;48.506;-2.750;2023-03-13T16:54:41;12.30;69.70
75621;DHT22;64574;48.506;-2.750;2023-03-13T16:57:11;12.30;69.10
75621;DHT22;64574;48.506;-2.750;2023-03-13T16:59:37;12.30;68.20
75621;DHT22;64574;48.506;-2.750;2023-03-13T17:02:03;12.30;68.70
75621;DHT22;64574;48.506;-2.750;2023-03-13T17:04:29;12.40;68.70
75621;DHT22;64574;48.506;-2.750;2023-03-13T17:06:54;12.30;68.70
75621;DHT22;64574;48.506;-2.750;2023-03-13T17:09:20;12.30;68.80
75621;DHT22;64574;48.506;-2.750;2023-03-13T17:11:46;12.20;69.50
75621;DHT22;64574;48.506;-2.750;2023-03-13T17:14:12;12.40;69.70
75621;DHT22;64574;48.506;-2.750;2023-03-13T17:16:40;12.50;69.60
75621;DHT22;64574;48.506;-2.750;2023-03-13T17:19:11;12.50;69.50
75621;DHT22;64574;48.506;-2.750;2023-03-13T17:21:37;12.50;69.90